createdAt,value
2023-01-21T00:01:15.857Z,4.13
2023-01-21T00:03:44.172Z,4.10
2023-01-21T00:06:15.017Z,4.07
2023-01-21T00:08:43.199Z,4.09
2023-01-21T00:11:14.407Z,4.08
2023-01-21T00:13:42.685Z,4.08
2023-01-21T00:16:11.438Z,4.13
2023-01-21T00:18:39.591Z,4.14
2023-01-21T00:21:07.582Z,4.13
2023-01-21T00:23:37.029Z,4.13
2023-01-21T00:26:07.218Z,4.14
2023-01-21T00:28:37.173Z,4.16
2023-01-21T00:31:07.645Z,4.22
2023-01-21T00:33:37.238Z,4.31
2023-01-21T00:36:07.230Z,4.39
2023-01-21T00:38:37.105Z,4.46
2023-01-21T00:41:06.968Z,4.48
2023-01-21T00:43:35.465Z,4.56
2023-01-21T00:46:03.948Z,4.62
2023-01-21T00:48:32.213Z,4.64
2023-01-21T00:51:00.928Z,4.72
2023-01-21T00:53:30.080Z,4.82
2023-01-21T00:56:02.196Z,4.91
2023-01-21T00:58:34.637Z,5.01
2023-01-21T01:01:03.937Z,5.09
2023-01-21T01:03:32.333Z,5.16
2023-01-21T01:06:04.823Z,5.19
2023-01-21T01:08:33.482Z,5.26
2023-01-21T01:11:03.306Z,5.32
2023-01-21T01:13:31.991Z,5.37
2023-01-21T01:16:00.367Z,5.39
2023-01-21T01:18:30.322Z,5.45
2023-01-21T01:20:58.411Z,5.51
2023-01-21T01:23:26.951Z,5.48
2023-01-21T01:25:59.540Z,5.49
2023-01-21T01:28:29.672Z,5.50
2023-01-21T01:30:58.703Z,5.55
2023-01-21T01:33:27.897Z,5.59
2023-01-21T01:35:56.041Z,5.57
2023-01-21T01:38:24.184Z,5.57
2023-01-21T01:40:53.747Z,5.61
2023-01-21T01:43:24.195Z,5.59
2023-01-21T01:45:54.140Z,5.48
2023-01-21T01:48:25.989Z,5.34
2023-01-21T01:50:55.347Z,5.36
2023-01-21T01:53:23.819Z,5.31
2023-01-21T01:55:51.904Z,5.26
2023-01-21T01:58:22.215Z,5.33
2023-01-21T02:00:50.303Z,5.31
2023-01-21T02:03:37.380Z,5.37
2023-01-21T02:06:05.946Z,5.47
2023-01-21T02:08:36.316Z,5.53
2023-01-21T02:11:11.703Z,5.51
2023-01-21T02:13:40.552Z,5.57
2023-01-21T02:16:20.984Z,5.64
2023-01-21T02:18:57.320Z,5.70
2023-01-21T02:21:42.811Z,5.70
2023-01-21T02:24:56.795Z,5.68
2023-01-21T02:27:41.053Z,5.63
2023-01-21T02:30:38.963Z,5.60
2023-01-21T02:33:50.447Z,5.55
2023-01-21T02:36:32.903Z,5.74
2023-01-21T02:39:08.476Z,5.94
2023-01-21T02:41:51.889Z,5.79
2023-01-21T02:44:25.959Z,5.76
2023-01-21T02:47:00.511Z,5.77
2023-01-21T02:49:35.564Z,5.76
2023-01-21T02:52:03.658Z,5.76
2023-01-21T02:54:52.884Z,5.71
2023-01-21T02:57:35.853Z,5.71
2023-01-21T03:00:11.369Z,5.71
2023-01-21T03:03:14.352Z,5.69
2023-01-21T03:06:26.811Z,5.68
2023-01-21T03:08:58.769Z,5.68
2023-01-21T03:11:27.135Z,5.76
2023-01-21T03:14:16.953Z,5.86
2023-01-21T03:16:59.827Z,5.92
2023-01-21T03:19:35.591Z,5.91
2023-01-21T03:22:09.448Z,5.96
2023-01-21T03:24:39.536Z,6.09
2023-01-21T03:27:10.033Z,6.16
2023-01-21T03:29:42.233Z,6.19
2023-01-21T03:32:15.222Z,6.23
2023-01-21T03:34:48.656Z,6.27
2023-01-21T03:37:23.342Z,6.36
2023-01-21T03:40:00.269Z,6.41
2023-01-21T03:42:28.591Z,6.42
2023-01-21T03:44:56.910Z,6.41
2023-01-21T03:47:29.546Z,6.41
2023-01-21T03:50:01.742Z,6.31
2023-01-21T03:52:31.725Z,6.34
2023-01-21T03:55:00.501Z,6.37
2023-01-21T03:57:28.682Z,6.38
2023-01-21T03:59:56.691Z,6.34
2023-01-21T04:02:24.841Z,6.26
2023-01-21T04:04:53.237Z,6.17
2023-01-21T04:07:21.374Z,6.08
2023-01-21T04:09:50.841Z,6.01
2023-01-21T04:12:19.444Z,5.93
2023-01-21T04:14:47.433Z,5.83
2023-01-21T04:17:15.521Z,5.75
2023-01-21T04:19:43.582Z,5.67
2023-01-21T04:22:11.646Z,5.61
2023-01-21T04:24:39.656Z,5.55
2023-01-21T04:27:09.103Z,5.56
2023-01-21T04:29:37.163Z,5.61
2023-01-21T04:32:05.354Z,5.67
2023-01-21T04:34:33.460Z,5.71
2023-01-21T04:37:01.456Z,5.80
2023-01-21T04:39:29.527Z,5.87
2023-01-21T04:41:57.577Z,5.95
2023-01-21T04:44:27.020Z,5.98
2023-01-21T04:46:55.014Z,6.06
2023-01-21T04:49:23.067Z,6.08
2023-01-21T04:51:51.114Z,6.09
2023-01-21T04:54:19.226Z,6.13
2023-01-21T04:56:47.206Z,6.11
2023-01-21T04:59:15.347Z,6.10
2023-01-21T05:01:44.779Z,6.02
2023-01-21T05:04:12.784Z,6.04
2023-01-21T05:06:40.869Z,6.08
2023-01-21T05:09:09.064Z,6.10
2023-01-21T05:11:37.112Z,6.09
2023-01-21T05:14:05.101Z,6.12
2023-01-21T05:16:33.182Z,6.16
2023-01-21T05:19:05.112Z,6.20
2023-01-21T05:21:33.216Z,6.27
2023-01-21T05:24:01.295Z,6.25
2023-01-21T05:26:29.317Z,6.26
2023-01-21T05:28:57.455Z,6.21
2023-01-21T05:31:26.226Z,6.16
2023-01-21T05:33:54.359Z,6.06
2023-01-21T05:36:23.761Z,6.06
2023-01-21T05:38:51.796Z,6.09
2023-01-21T05:41:20.203Z,6.08
2023-01-21T05:43:48.277Z,6.04
2023-01-21T05:46:16.274Z,5.96
2023-01-21T05:48:44.385Z,5.90
2023-01-21T05:51:12.554Z,5.83
2023-01-21T05:53:41.948Z,5.83
2023-01-21T05:56:10.062Z,5.78
2023-01-21T05:58:38.069Z,5.69
2023-01-21T06:01:06.401Z,5.62
2023-01-21T06:03:35.675Z,5.55
2023-01-21T06:06:03.749Z,5.48
2023-01-21T06:08:31.838Z,5.39
2023-01-21T06:11:01.311Z,5.33
2023-01-21T06:13:29.565Z,5.25
2023-01-21T06:15:58.038Z,5.19
2023-01-21T06:18:26.569Z,5.11
2023-01-21T06:20:54.679Z,5.08
2023-01-21T06:23:22.697Z,5.04
2023-01-21T06:25:50.762Z,4.98
2023-01-21T06:28:20.113Z,4.93
2023-01-21T06:30:48.510Z,4.90
2023-01-21T06:33:16.559Z,4.88
2023-01-21T06:35:44.613Z,4.93
2023-01-21T06:38:12.584Z,5.03
2023-01-21T06:40:40.705Z,5.10
2023-01-21T06:43:09.118Z,5.20
2023-01-21T06:45:38.516Z,5.30
2023-01-21T06:48:06.799Z,5.37
2023-01-21T06:50:34.824Z,5.43
2023-01-21T06:53:02.830Z,5.52
2023-01-21T06:55:30.854Z,5.61
2023-01-21T06:57:58.895Z,5.69
2023-01-21T07:00:27.105Z,5.76
2023-01-21T07:02:58.831Z,5.81
2023-01-21T07:05:27.433Z,5.85
2023-01-21T07:07:56.238Z,5.86
2023-01-21T07:10:24.441Z,5.95
2023-01-21T07:12:53.422Z,5.96
2023-01-21T07:15:21.568Z,5.97
2023-01-21T07:17:49.594Z,6.00
2023-01-21T07:20:19.398Z,6.07
2023-01-21T07:22:47.453Z,6.12
2023-01-21T07:25:15.900Z,6.11
2023-01-21T07:27:44.137Z,6.13
2023-01-21T07:30:17.634Z,6.14
2023-01-21T07:32:46.086Z,6.16
2023-01-21T07:35:14.557Z,6.16
2023-01-21T07:37:44.136Z,6.19
2023-01-21T07:40:13.262Z,6.19
2023-01-21T07:42:41.321Z,6.20
2023-01-21T07:45:10.150Z,6.22
2023-01-21T07:47:38.155Z,6.21
2023-01-21T07:50:08.761Z,6.22
2023-01-21T07:52:37.029Z,6.22
2023-01-21T07:55:08.090Z,6.26
2023-01-21T07:57:36.215Z,6.33
2023-01-21T08:00:05.110Z,6.36
2023-01-21T08:02:39.576Z,6.39
2023-01-21T08:05:08.465Z,6.43
2023-01-21T08:07:36.631Z,6.48
2023-01-21T08:10:06.517Z,6.51
2023-01-21T08:12:34.601Z,6.54
2023-01-21T08:15:02.685Z,6.56
2023-01-21T08:17:30.794Z,6.61
2023-01-21T08:19:58.866Z,6.67
2023-01-21T08:22:26.998Z,6.67
2023-01-21T08:24:55.048Z,6.70
2023-01-21T08:27:24.589Z,6.69
2023-01-21T08:29:52.695Z,6.53
2023-01-21T08:32:20.876Z,6.65
2023-01-21T08:34:48.987Z,6.75
2023-01-21T08:37:17.076Z,6.80
2023-01-21T08:39:45.156Z,6.87
2023-01-21T08:42:13.198Z,6.93
2023-01-21T08:44:42.627Z,6.98
2023-01-21T08:47:10.671Z,7.01
2023-01-21T08:49:38.812Z,7.05
2023-01-21T08:52:07.054Z,7.08
2023-01-21T08:54:35.120Z,7.11
2023-01-21T08:57:03.203Z,7.14
2023-01-21T08:59:31.349Z,7.16
2023-01-21T09:02:00.816Z,7.04
2023-01-21T09:04:28.940Z,7.09
2023-01-21T09:06:57.029Z,7.20
2023-01-21T09:09:25.249Z,7.29
2023-01-21T09:11:53.544Z,7.32
2023-01-21T09:14:21.713Z,7.38
2023-01-21T09:16:50.437Z,7.40
2023-01-21T09:19:19.864Z,7.49
2023-01-21T09:21:47.942Z,7.53
2023-01-21T09:24:16.040Z,7.56
2023-01-21T09:26:45.068Z,7.58
2023-01-21T09:29:13.291Z,7.58
2023-01-21T09:31:41.515Z,7.63
2023-01-21T09:34:11.873Z,7.69
2023-01-21T09:36:41.465Z,7.73
2023-01-21T09:39:09.767Z,7.75
2023-01-21T09:41:39.739Z,7.77
2023-01-21T09:44:17.231Z,7.78
2023-01-21T09:46:52.508Z,7.82
2023-01-21T09:49:25.072Z,7.88
2023-01-21T09:52:02.377Z,7.85
2023-01-21T09:54:33.921Z,7.83
2023-01-21T09:57:20.189Z,7.82
2023-01-21T09:59:58.729Z,7.79
2023-01-21T10:02:31.733Z,7.86
2023-01-21T10:05:18.285Z,7.86
2023-01-21T10:07:54.183Z,7.93
2023-01-21T10:10:25.881Z,8.03
2023-01-21T10:13:05.706Z,8.01
2023-01-21T10:15:47.720Z,8.08
2023-01-21T10:18:19.610Z,8.23
2023-01-21T10:20:52.386Z,8.32
2023-01-21T10:23:27.126Z,8.28
2023-01-21T10:25:57.316Z,8.30
2023-01-21T10:28:30.510Z,8.37
2023-01-21T10:31:04.115Z,8.39
2023-01-21T10:33:34.267Z,8.26
2023-01-21T10:36:22.288Z,8.42
2023-01-21T10:39:02.414Z,8.59
2023-01-21T10:41:42.948Z,8.74
2023-01-21T10:44:20.253Z,8.87
2023-01-21T10:46:56.745Z,9.00
2023-01-21T10:49:33.186Z,9.19
2023-01-21T10:52:07.028Z,9.38
2023-01-21T10:54:46.199Z,9.47
2023-01-21T10:57:31.460Z,9.55
2023-01-21T11:00:02.714Z,9.55
2023-01-21T11:02:32.491Z,9.74
2023-01-21T11:05:03.350Z,9.98
2023-01-21T11:07:35.368Z,10.19
2023-01-21T11:10:07.095Z,10.37
2023-01-21T11:12:35.235Z,10.57
2023-01-21T11:15:09.158Z,10.74
2023-01-21T11:17:41.295Z,10.68
2023-01-21T11:20:21.764Z,10.63
2023-01-21T11:22:50.889Z,10.80
2023-01-21T11:25:36.924Z,10.92
2023-01-21T11:28:05.379Z,11.02
2023-01-21T11:30:50.202Z,11.00
2023-01-21T11:33:26.666Z,11.17
2023-01-21T11:35:56.069Z,11.58
2023-01-21T11:38:34.231Z,12.16
2023-01-21T11:41:06.677Z,13.07
2023-01-21T11:43:41.104Z,14.03
2023-01-21T11:46:42.095Z,15.01
2023-01-21T11:49:30.503Z,15.86
2023-01-21T11:52:19.803Z,16.63
2023-01-21T11:54:48.697Z,17.18
2023-01-21T11:57:28.948Z,17.38
2023-01-21T12:00:07.829Z,17.43
2023-01-21T12:02:43.624Z,17.48
2023-01-21T12:05:17.073Z,17.19
2023-01-21T12:07:50.536Z,17.35
2023-01-21T12:10:29.140Z,17.61
2023-01-21T12:13:20.106Z,17.82
2023-01-21T12:16:06.696Z,17.88
2023-01-21T12:18:48.692Z,18.02
2023-01-21T12:21:23.750Z,17.93
2023-01-21T12:24:05.370Z,18.06
2023-01-21T12:26:38.901Z,18.34
2023-01-21T12:29:34.249Z,18.68
2023-01-21T12:32:08.903Z,19.08
2023-01-21T12:34:43.425Z,19.40
2023-01-21T12:37:17.675Z,19.74
2023-01-21T12:39:48.543Z,19.95
2023-01-21T12:42:22.281Z,20.07
2023-01-21T12:44:56.132Z,20.27
2023-01-21T12:47:31.860Z,20.48
2023-01-21T12:50:19.833Z,20.27
2023-01-21T12:52:58.398Z,20.03
2023-01-21T12:55:33.462Z,20.03
2023-01-21T12:58:06.186Z,20.10
2023-01-21T13:00:38.557Z,20.01
2023-01-21T13:03:21.751Z,20.00
2023-01-21T13:05:55.963Z,19.65
2023-01-21T13:08:35.703Z,19.59
2023-01-21T13:11:08.657Z,19.94
2023-01-21T13:13:39.486Z,19.99
2023-01-21T13:16:11.161Z,20.05
2023-01-21T13:18:40.675Z,19.80
2023-01-21T13:21:17.232Z,19.96
2023-01-21T13:23:50.238Z,20.17
2023-01-21T13:26:24.866Z,20.36
2023-01-21T13:28:58.854Z,20.33
2023-01-21T13:31:35.432Z,20.29
2023-01-21T13:34:10.190Z,19.98
2023-01-21T13:36:52.746Z,19.03
2023-01-21T13:39:28.520Z,18.14
2023-01-21T13:42:08.993Z,17.39
2023-01-21T13:44:58.715Z,16.44
2023-01-21T13:47:42.248Z,15.75
2023-01-21T13:50:19.993Z,15.21
2023-01-21T13:53:06.997Z,14.56
2023-01-21T13:55:47.857Z,14.28
2023-01-21T13:58:20.773Z,13.97
2023-01-21T14:00:54.820Z,13.60
2023-01-21T14:03:30.179Z,13.30
2023-01-21T14:06:06.094Z,13.12
2023-01-21T14:08:37.140Z,13.00
2023-01-21T14:11:11.180Z,12.92
2023-01-21T14:14:08.237Z,12.69
2023-01-21T14:17:01.659Z,12.57
2023-01-21T14:19:55.331Z,12.40
2023-01-21T14:22:41.727Z,12.23
2023-01-21T14:25:23.805Z,12.12
2023-01-21T14:28:03.515Z,11.81
2023-01-21T14:30:38.557Z,11.69
2023-01-21T14:33:13.206Z,11.59
2023-01-21T14:35:48.928Z,11.42
2023-01-21T14:38:27.552Z,11.23
2023-01-21T14:41:06.656Z,11.09
2023-01-21T14:43:49.680Z,11.01
2023-01-21T14:46:26.829Z,10.95
2023-01-21T14:49:00.277Z,10.77
2023-01-21T14:51:31.760Z,10.67
2023-01-21T14:54:03.167Z,10.56
2023-01-21T14:56:33.540Z,10.48
2023-01-21T14:59:04.474Z,10.25
2023-01-21T15:01:38.835Z,10.23
2023-01-21T15:04:18.043Z,10.36
2023-01-21T15:06:48.472Z,10.45
2023-01-21T15:09:23.103Z,10.54
2023-01-21T15:11:56.739Z,10.49
2023-01-21T15:14:28.941Z,10.42
2023-01-21T15:16:57.149Z,10.31
2023-01-21T15:19:28.847Z,10.20
2023-01-21T15:22:38.917Z,10.07
2023-01-21T15:25:34.235Z,9.96
2023-01-21T15:28:35.897Z,9.84
2023-01-21T15:31:06.781Z,9.71
2023-01-21T15:33:40.221Z,9.55
2023-01-21T15:36:21.540Z,9.40
2023-01-21T15:38:51.930Z,9.31
2023-01-21T15:41:39.388Z,9.18
2023-01-21T15:44:46.188Z,9.08
2023-01-21T15:47:40.165Z,9.00
2023-01-21T15:50:18.583Z,8.90
2023-01-21T15:53:11.279Z,8.79
2023-01-21T15:56:01.379Z,8.66
2023-01-21T15:58:41.145Z,8.63
2023-01-21T16:01:15.947Z,8.59
2023-01-21T16:03:48.533Z,8.53
2023-01-21T16:06:26.777Z,8.44
2023-01-21T16:09:04.534Z,8.38
2023-01-21T16:11:57.131Z,8.36
2023-01-21T16:14:39.302Z,8.36
2023-01-21T16:17:18.885Z,8.37
2023-01-21T16:19:49.658Z,8.36
2023-01-21T16:22:22.805Z,8.33
2023-01-21T16:24:55.785Z,8.26
2023-01-21T16:27:27.418Z,8.17
2023-01-21T16:29:59.856Z,8.12
2023-01-21T16:32:28.070Z,8.03
2023-01-21T16:34:56.140Z,7.91
2023-01-21T16:37:26.185Z,7.82
2023-01-21T16:39:56.004Z,7.71
2023-01-21T16:42:32.707Z,7.62
2023-01-21T16:45:01.565Z,7.54
2023-01-21T16:47:37.627Z,7.44
2023-01-21T16:50:14.949Z,7.38
2023-01-21T16:52:43.116Z,7.27
2023-01-21T16:55:19.699Z,7.19
2023-01-21T16:57:52.937Z,7.11
2023-01-21T17:00:25.871Z,6.99
2023-01-21T17:02:54.963Z,6.93
2023-01-21T17:05:24.164Z,6.85
2023-01-21T17:07:55.990Z,6.78
2023-01-21T17:10:28.041Z,6.70
2023-01-21T17:13:02.629Z,6.66
2023-01-21T17:15:36.130Z,6.45
2023-01-21T17:18:07.194Z,6.28
2023-01-21T17:20:38.099Z,6.20
2023-01-21T17:23:09.809Z,6.14
2023-01-21T17:25:38.570Z,6.08
2023-01-21T17:28:30.252Z,5.99
2023-01-21T17:31:13.192Z,5.91
2023-01-21T17:33:41.884Z,5.86
2023-01-21T17:36:13.240Z,5.82
2023-01-21T17:38:44.285Z,5.79
2023-01-21T17:41:24.515Z,5.72
2023-01-21T17:43:56.673Z,5.68
2023-01-21T17:46:25.985Z,5.66
2023-01-21T17:48:58.884Z,5.60
2023-01-21T17:51:31.580Z,5.59
2023-01-21T17:54:02.203Z,5.54
2023-01-21T17:56:42.182Z,5.50
2023-01-21T17:59:31.589Z,5.45
2023-01-21T18:01:59.742Z,5.41
2023-01-21T18:04:27.914Z,5.38
2023-01-21T18:06:57.322Z,5.35
2023-01-21T18:09:28.298Z,5.33
2023-01-21T18:11:58.389Z,5.31
2023-01-21T18:14:29.038Z,5.25
2023-01-21T18:16:57.496Z,5.21
2023-01-21T18:19:32.313Z,5.16
2023-01-21T18:22:01.490Z,5.12
2023-01-21T18:24:41.847Z,5.05
2023-01-21T18:27:12.575Z,5.04
2023-01-21T18:29:42.839Z,5.02
2023-01-21T18:32:13.225Z,4.98
2023-01-21T18:34:41.288Z,4.96
2023-01-21T18:37:14.047Z,4.94
2023-01-21T18:39:42.645Z,4.90
2023-01-21T18:42:15.689Z,4.87
2023-01-21T18:44:45.574Z,4.88
2023-01-21T18:47:14.927Z,4.88
2023-01-21T18:49:43.418Z,4.89
2023-01-21T18:52:11.917Z,4.92
2023-01-21T18:54:39.946Z,4.91
2023-01-21T18:57:12.479Z,4.90
2023-01-21T18:59:40.511Z,4.89
2023-01-21T19:02:15.238Z,4.88
2023-01-21T19:04:43.449Z,4.87
2023-01-21T19:07:15.446Z,4.82
2023-01-21T19:09:46.116Z,4.82
2023-01-21T19:12:14.811Z,4.79
2023-01-21T19:14:42.891Z,4.78
2023-01-21T19:17:14.409Z,4.75
2023-01-21T19:19:42.692Z,4.71
2023-01-21T19:22:13.646Z,4.72
2023-01-21T19:24:42.171Z,4.68
2023-01-21T19:27:15.618Z,4.67
2023-01-21T19:29:43.897Z,4.64
2023-01-21T19:32:15.296Z,4.62
2023-01-21T19:34:43.968Z,4.62
2023-01-21T19:37:15.231Z,4.61
2023-01-21T19:39:43.607Z,4.62
2023-01-21T19:42:12.490Z,4.64
2023-01-21T19:44:44.284Z,4.65
2023-01-21T19:47:19.860Z,4.66
2023-01-21T19:49:47.967Z,4.67
2023-01-21T19:52:16.071Z,4.69
2023-01-21T19:54:46.751Z,4.68
2023-01-21T19:57:15.643Z,4.67
2023-01-21T19:59:45.117Z,4.66
2023-01-21T20:02:13.523Z,4.68
2023-01-21T20:04:43.098Z,4.69
2023-01-21T20:07:14.045Z,4.71
2023-01-21T20:09:42.142Z,4.69
2023-01-21T20:12:12.411Z,4.67
2023-01-21T20:14:40.466Z,4.68
2023-01-21T20:17:13.935Z,4.66
2023-01-21T20:19:43.386Z,4.69
2023-01-21T20:22:13.414Z,4.71
2023-01-21T20:24:41.461Z,4.72
2023-01-21T20:27:12.817Z,4.72
2023-01-21T20:29:49.621Z,4.71
2023-01-21T20:32:24.022Z,4.71
2023-01-21T20:34:53.532Z,4.72
2023-01-21T20:37:21.666Z,4.69
2023-01-21T20:39:49.743Z,4.71
2023-01-21T20:42:17.829Z,4.67
2023-01-21T20:44:45.913Z,4.64
2023-01-21T20:47:14.611Z,4.64
2023-01-21T20:49:43.467Z,4.64
2023-01-21T20:52:13.415Z,4.66
2023-01-21T20:54:41.724Z,4.67
2023-01-21T20:57:13.336Z,4.67
2023-01-21T20:59:41.477Z,4.68
2023-01-21T21:02:12.524Z,4.64
2023-01-21T21:04:40.978Z,4.62
2023-01-21T21:07:16.583Z,4.61
2023-01-21T21:09:44.683Z,4.57
2023-01-21T21:12:12.716Z,4.56
2023-01-21T21:14:40.754Z,4.54
2023-01-21T21:17:11.711Z,4.53
2023-01-21T21:19:39.743Z,4.51
2023-01-21T21:22:07.833Z,4.47
2023-01-21T21:24:37.273Z,4.45
2023-01-21T21:27:07.563Z,4.45
2023-01-21T21:29:35.649Z,4.44
2023-01-21T21:32:04.627Z,4.45
2023-01-21T21:34:32.797Z,4.43
2023-01-21T21:37:00.833Z,4.42
2023-01-21T21:39:28.943Z,4.44
2023-01-21T21:42:16.184Z,4.42
2023-01-21T21:44:44.901Z,4.45
2023-01-21T21:47:35.647Z,4.47
2023-01-21T21:50:03.849Z,4.54
2023-01-21T21:52:32.854Z,4.65
2023-01-21T21:55:00.894Z,4.75
2023-01-21T21:57:30.358Z,4.84
2023-01-21T21:59:58.346Z,4.91
2023-01-21T22:02:26.514Z,4.93
2023-01-21T22:04:54.962Z,4.93
2023-01-21T22:07:23.056Z,4.92
2023-01-21T22:09:51.068Z,4.95
2023-01-21T22:12:19.081Z,4.96
2023-01-21T22:14:48.566Z,5.03
2023-01-21T22:17:16.727Z,5.07
2023-01-21T22:19:44.768Z,5.06
2023-01-21T22:22:12.766Z,5.19
2023-01-21T22:24:40.872Z,5.25
2023-01-21T22:27:08.883Z,5.36
2023-01-21T22:29:36.924Z,5.41
2023-01-21T22:32:06.552Z,5.51
2023-01-21T22:34:34.650Z,5.56
2023-01-21T22:37:02.738Z,5.66
2023-01-21T22:39:31.231Z,5.69
2023-01-21T22:42:00.257Z,5.63
2023-01-21T22:44:28.396Z,5.68
2023-01-21T22:46:56.551Z,5.69
2023-01-21T22:49:25.988Z,5.71
2023-01-21T22:51:55.056Z,5.71
2023-01-21T22:54:23.108Z,5.69
2023-01-21T22:56:53.026Z,5.68
2023-01-21T22:59:22.013Z,5.62
2023-01-21T23:01:51.212Z,5.54
2023-01-21T23:04:19.373Z,5.54
2023-01-21T23:06:51.179Z,5.51
2023-01-21T23:09:19.258Z,5.51
2023-01-21T23:11:47.439Z,5.49
2023-01-21T23:14:16.547Z,5.45
2023-01-21T23:16:44.615Z,5.38
2023-01-21T23:19:13.522Z,5.39
2023-01-21T23:21:41.618Z,5.37
2023-01-21T23:24:11.283Z,5.28
2023-01-21T23:26:39.391Z,5.22
2023-01-21T23:29:07.404Z,5.17
2023-01-21T23:31:35.825Z,5.16
2023-01-21T23:34:04.369Z,5.12
2023-01-21T23:36:32.429Z,5.08
2023-01-21T23:39:00.467Z,5.06
2023-01-21T23:41:29.943Z,5.04
2023-01-21T23:43:59.759Z,5.02
2023-01-21T23:46:27.971Z,5.00
2023-01-21T23:48:56.109Z,4.98
2023-01-21T23:51:24.223Z,5.00
2023-01-21T23:53:52.311Z,5.02
2023-01-21T23:56:22.798Z,5.04
2023-01-21T23:58:53.045Z,5.02
